KILM/ILM METAR and TAF weather

Enter ICAO airport designator
Station Type Date Time Source
KILM METAR 2022/01/23 11:53 UTC NOAA

KILM 231153Z 00000KT 9SM CLR M06/M07 A3014 RMK AO2 SLP205 I1000 I6000 T10561067 11033 21061 55004


Station Type Date Time Source
KILM Decoded METAR 2022/01/23 11:53 UTC NOAA

WILMINGTON INT'L AIRPORT, NC, United States (KILM) 34-16N 077-54W 9M
Jan 23, 2022 - 06:53 AM EST / 2022.01.23 1153 UTC
Wind: Calm:0
Visibility: 9 mile(s):0
Sky conditions: clear
Temperature: 21.9 F (-5.6 C)
Dew Point: 19.9 F (-6.7 C)
Relative Humidity: 91%
Pressure (altimeter): 30.14 in. Hg (1020 hPa)
Pressure tendency: 0.01 inches (0.4 hPa) lower than three hours ago
ob: KILM 231153Z 00000KT 9SM CLR M06/M07 A3014 RMK AO2 SLP205 I1000 I6000 T10561067 11033 21061 55004
cycle: 12

Station Type Date Time Source
KILM TAF 2022/01/23 12:24 UTC NOAA

TAF KILM 231122Z 2312/2412 00000KT P6SM SKC
FM231400 31004KT P6SM SKC
FM240300 24005KT P6SM SKC

Example: see airport list